createdAt,value
2018-08-12T00:02:16.299Z,1.37
2018-08-12T00:04:46.064Z,2.17
2018-08-12T00:07:15.736Z,4.03
2018-08-12T00:09:45.420Z,2.47
2018-08-12T00:12:15.153Z,2.23
2018-08-12T00:14:44.851Z,3.50
2018-08-12T00:17:15.232Z,3.00
2018-08-12T00:19:45.034Z,4.70
2018-08-12T00:22:14.784Z,3.97
2018-08-12T00:24:44.641Z,1.33
2018-08-12T00:27:14.541Z,1.50
2018-08-12T00:29:44.257Z,2.43
2018-08-12T00:32:14.925Z,2.73
2018-08-12T00:34:44.603Z,2.80
2018-08-12T00:37:14.334Z,2.43
2018-08-12T00:39:44.773Z,1.67
2018-08-12T00:42:14.554Z,1.60
2018-08-12T00:44:44.355Z,2.53
2018-08-12T00:47:15.045Z,2.60
2018-08-12T00:49:44.698Z,2.17
2018-08-12T00:52:14.393Z,2.33
2018-08-12T00:54:44.624Z,3.73
2018-08-12T00:57:14.291Z,1.20
2018-08-12T00:59:43.928Z,2.13
2018-08-12T01:02:14.637Z,3.53
2018-08-12T01:04:44.328Z,1.90
2018-08-12T01:07:14.052Z,7.53
2018-08-12T01:09:43.937Z,4.00
2018-08-12T01:12:13.647Z,2.60
2018-08-12T01:14:43.313Z,2.50
2018-08-12T01:17:13.675Z,2.33
2018-08-12T01:19:43.341Z,6.23
2018-08-12T01:22:13.028Z,6.70
2018-08-12T01:24:43.230Z,3.30
2018-08-12T01:27:12.974Z,3.17
2018-08-12T01:29:42.693Z,2.20
2018-08-12T01:32:12.903Z,2.77
2018-08-12T01:34:42.547Z,3.23
2018-08-12T01:37:12.195Z,2.00
2018-08-12T01:39:42.939Z,4.63
2018-08-12T01:42:12.571Z,2.20
2018-08-12T01:44:42.261Z,5.10
2018-08-12T01:47:12.666Z,5.70
2018-08-12T01:49:42.329Z,6.27
2018-08-12T01:52:11.994Z,1.30
2018-08-12T01:54:42.320Z,3.37
2018-08-12T01:57:11.958Z,3.00
2018-08-12T01:59:41.656Z,4.80
2018-08-12T02:02:11.629Z,4.77
2018-08-12T02:04:41.274Z,2.93
2018-08-12T02:07:10.907Z,1.70
2018-08-12T02:09:42.043Z,2.63
2018-08-12T02:12:11.684Z,2.07
2018-08-12T02:14:41.335Z,1.60
2018-08-12T02:17:11.642Z,3.50
2018-08-12T02:19:41.275Z,2.37
2018-08-12T02:22:10.992Z,2.37
2018-08-12T02:24:42.108Z,1.80
2018-08-12T02:27:11.739Z,2.10
2018-08-12T02:29:41.436Z,2.00
2018-08-12T02:32:11.091Z,3.80
2018-08-12T02:34:40.852Z,3.07
2018-08-12T02:37:10.687Z,3.67
2018-08-12T02:39:41.784Z,3.80
2018-08-12T02:42:11.503Z,3.13
2018-08-12T02:44:41.310Z,2.13
2018-08-12T02:47:11.016Z,3.80
2018-08-12T02:49:40.633Z,3.37
2018-08-12T02:52:10.343Z,5.20
2018-08-12T02:54:41.770Z,4.13
2018-08-12T02:57:11.425Z,5.17
2018-08-12T02:59:41.125Z,3.77
2018-08-12T03:02:10.794Z,1.93
2018-08-12T03:04:40.436Z,3.97
2018-08-12T03:07:10.069Z,4.23
2018-08-12T03:09:40.432Z,2.90
2018-08-12T03:12:10.109Z,4.83
2018-08-12T03:14:39.794Z,2.27
2018-08-12T03:17:09.478Z,4.93
2018-08-12T03:19:39.112Z,4.17
2018-08-12T03:22:08.755Z,3.27
2018-08-12T03:24:39.165Z,2.77
2018-08-12T03:27:08.804Z,4.87
2018-08-12T03:29:38.513Z,3.67
2018-08-12T03:32:08.189Z,3.70
2018-08-12T03:34:37.981Z,2.80
2018-08-12T03:37:07.810Z,5.07
2018-08-12T03:39:37.625Z,2.73
2018-08-12T03:42:07.303Z,3.47
2018-08-12T03:44:36.965Z,3.40
2018-08-12T03:47:06.830Z,3.67
2018-08-12T03:49:36.463Z,3.67
2018-08-12T03:52:06.158Z,6.13
2018-08-12T03:54:35.846Z,3.80
2018-08-12T03:57:05.562Z,4.00
2018-08-12T03:59:35.271Z,5.47
2018-08-12T04:02:04.930Z,3.77
2018-08-12T04:04:34.680Z,5.73
2018-08-12T04:07:04.525Z,15.63
2018-08-12T04:09:34.215Z,3.77
2018-08-12T04:12:03.855Z,2.23
2018-08-12T04:14:33.498Z,2.37
2018-08-12T04:17:03.155Z,8.27
2018-08-12T04:19:32.845Z,8.40
2018-08-12T04:22:02.740Z,3.27
2018-08-12T04:24:32.650Z,4.73
2018-08-12T04:27:02.298Z,3.23
2018-08-12T04:29:31.943Z,5.70
2018-08-12T04:32:01.612Z,6.07
2018-08-12T04:34:32.172Z,6.07
2018-08-12T04:37:01.764Z,2.43
2018-08-12T04:39:31.890Z,4.07
2018-08-12T04:42:01.687Z,3.73
2018-08-12T04:44:32.282Z,4.57
2018-08-12T04:47:01.952Z,2.27
2018-08-12T04:49:32.437Z,3.67
2018-08-12T04:52:02.085Z,3.20
2018-08-12T04:54:32.777Z,3.77
2018-08-12T04:57:02.399Z,4.13
2018-08-12T04:59:32.840Z,5.10
2018-08-12T05:02:02.455Z,3.70
2018-08-12T05:04:32.870Z,8.87
2018-08-12T05:07:02.810Z,3.30
2018-08-12T05:09:33.436Z,2.77
2018-08-12T05:12:03.082Z,3.70
2018-08-12T05:14:34.649Z,2.40
2018-08-12T05:17:04.402Z,2.70
2018-08-12T05:19:34.329Z,6.23
2018-08-12T05:22:04.019Z,5.80
2018-08-12T05:24:34.179Z,3.13
2018-08-12T05:27:03.891Z,4.10
2018-08-12T05:29:34.486Z,2.17
2018-08-12T05:32:04.184Z,3.60
2018-08-12T05:34:34.706Z,6.63
2018-08-12T05:37:04.598Z,3.30
2018-08-12T05:39:34.984Z,5.77
2018-08-12T05:42:04.795Z,3.83
2018-08-12T05:44:35.323Z,3.47
2018-08-12T05:47:04.998Z,3.07
2018-08-12T05:49:35.387Z,1.53
2018-08-12T05:52:05.115Z,2.30
2018-08-12T05:54:35.523Z,2.13
2018-08-12T05:57:05.236Z,3.23
2018-08-12T05:59:35.706Z,2.97
2018-08-12T06:02:05.360Z,1.80
2018-08-12T06:04:35.514Z,3.00
2018-08-12T06:07:05.232Z,2.00
2018-08-12T06:09:36.686Z,1.70
2018-08-12T06:12:06.391Z,2.17
2018-08-12T06:14:36.564Z,2.70
2018-08-12T06:17:06.281Z,5.07
2018-08-12T06:19:36.850Z,1.60
2018-08-12T06:22:06.680Z,3.33
2018-08-12T06:24:37.126Z,2.63
2018-08-12T06:27:06.766Z,5.57
2018-08-12T06:29:36.948Z,2.60
2018-08-12T06:32:08.632Z,2.17
2018-08-12T06:34:41.181Z,1.93
2018-08-12T06:37:10.873Z,3.50
2018-08-12T06:39:41.548Z,2.10
2018-08-12T06:42:11.339Z,2.67
2018-08-12T06:44:41.097Z,4.70
2018-08-12T06:47:10.717Z,3.00
2018-08-12T06:49:40.485Z,4.07
2018-08-12T06:52:10.174Z,2.90
2018-08-12T06:54:41.871Z,2.70
2018-08-12T06:57:11.599Z,2.90
2018-08-12T06:59:41.230Z,3.33
2018-08-12T07:02:11.390Z,2.50
2018-08-12T07:04:41.146Z,2.67
2018-08-12T07:07:11.042Z,4.47
2018-08-12T07:09:42.434Z,2.67
2018-08-12T07:12:12.152Z,2.67
2018-08-12T07:14:41.998Z,2.07
2018-08-12T07:17:13.003Z,2.00
2018-08-12T07:19:44.307Z,2.03
2018-08-12T07:22:14.176Z,5.10
2018-08-12T07:24:44.554Z,2.87
2018-08-12T07:27:14.184Z,3.60
2018-08-12T07:29:43.842Z,2.73
2018-08-12T07:32:13.978Z,2.07
2018-08-12T07:34:43.731Z,5.63
2018-08-12T07:37:13.350Z,2.47
2018-08-12T07:39:44.235Z,3.23
2018-08-12T07:42:13.961Z,6.37
2018-08-12T07:44:43.634Z,3.70
2018-08-12T07:47:14.187Z,5.33
2018-08-12T07:49:43.900Z,4.10
2018-08-12T07:52:13.555Z,2.97
2018-08-12T07:54:44.665Z,2.87
2018-08-12T07:57:14.315Z,1.77
2018-08-12T07:59:44.152Z,3.70
2018-08-12T08:02:14.431Z,3.53
2018-08-12T08:04:44.150Z,3.57
2018-08-12T08:07:13.813Z,4.50
2018-08-12T08:09:45.153Z,4.97
2018-08-12T08:12:14.832Z,3.03
2018-08-12T08:14:44.480Z,2.13
2018-08-12T08:17:14.323Z,5.67
2018-08-12T08:19:46.795Z,4.90
2018-08-12T08:22:17.043Z,2.60
2018-08-12T08:24:47.907Z,3.53
2018-08-12T08:27:17.695Z,7.77
2018-08-12T08:29:47.427Z,3.57
2018-08-12T08:32:18.235Z,2.70
2018-08-12T08:34:47.911Z,2.83
2018-08-12T08:37:18.759Z,1.43
2018-08-12T08:39:48.704Z,5.13
2018-08-12T08:42:18.835Z,1.70
2018-08-12T08:44:50.963Z,3.80
2018-08-12T08:47:21.081Z,3.63
2018-08-12T08:49:50.780Z,4.57
2018-08-12T08:52:21.753Z,4.07
2018-08-12T08:54:51.396Z,4.70
2018-08-12T08:57:21.439Z,2.70
2018-08-12T08:59:52.867Z,3.07
2018-08-12T09:02:29.116Z,4.13
2018-08-12T09:04:58.904Z,1.97
2018-08-12T09:07:28.892Z,1.77
2018-08-12T09:09:58.699Z,2.63
2018-08-12T09:12:28.502Z,1.20
2018-08-12T09:14:58.616Z,4.90
2018-08-12T09:17:30.191Z,3.57
2018-08-12T09:20:02.523Z,5.23
2018-08-12T09:22:32.224Z,3.10
2018-08-12T09:25:02.941Z,1.90
2018-08-12T09:27:32.547Z,4.27
2018-08-12T09:30:03.305Z,1.57
2018-08-12T09:32:32.955Z,5.50
2018-08-12T09:35:02.608Z,4.67
2018-08-12T09:37:32.332Z,2.87
2018-08-12T09:40:02.041Z,1.00
2018-08-12T09:42:31.943Z,3.87
2018-08-12T09:45:01.655Z,5.77
2018-08-12T09:47:31.310Z,4.37
2018-08-12T09:50:00.935Z,1.73
2018-08-12T09:52:31.027Z,3.47
2018-08-12T09:55:00.692Z,4.57
2018-08-12T09:57:30.395Z,3.90
2018-08-12T10:00:00.067Z,2.20
2018-08-12T10:02:29.756Z,2.67
2018-08-12T10:04:59.686Z,4.33
2018-08-12T10:07:29.488Z,4.20
2018-08-12T10:09:59.285Z,3.80
2018-08-12T10:12:28.979Z,2.50
2018-08-12T10:14:58.602Z,2.40
2018-08-12T10:17:28.281Z,4.87
2018-08-12T10:19:57.985Z,2.63
2018-08-12T10:22:28.123Z,4.63
2018-08-12T10:24:57.806Z,2.00
2018-08-12T10:27:27.593Z,3.10
2018-08-12T10:29:57.256Z,9.93
2018-08-12T10:32:26.953Z,2.87
2018-08-12T10:34:57.477Z,2.10
2018-08-12T10:37:27.621Z,5.80
2018-08-12T10:39:57.304Z,1.83
2018-08-12T10:42:28.073Z,2.40
2018-08-12T10:44:57.918Z,2.40
2018-08-12T10:47:28.025Z,4.23
2018-08-12T10:49:58.041Z,2.73
2018-08-12T10:52:28.060Z,5.77
2018-08-12T10:54:59.576Z,2.87
2018-08-12T10:57:29.509Z,1.60
2018-08-12T11:00:00.725Z,4.83
2018-08-12T11:02:30.589Z,1.53
2018-08-12T11:05:00.554Z,2.43
2018-08-12T11:07:30.848Z,2.87
2018-08-12T11:10:01.673Z,1.77
2018-08-12T11:12:31.764Z,1.77
2018-08-12T11:15:01.540Z,2.10
2018-08-12T11:17:31.220Z,2.43
2018-08-12T11:20:00.892Z,2.63
2018-08-12T11:22:30.566Z,2.23
2018-08-12T11:25:00.402Z,4.83
2018-08-12T11:27:30.608Z,3.17
2018-08-12T11:30:00.394Z,2.77
2018-08-12T11:32:30.234Z,3.60
2018-08-12T11:35:00.008Z,2.33
2018-08-12T11:37:29.752Z,2.13
2018-08-12T11:39:59.467Z,2.83
2018-08-12T11:42:29.123Z,2.03
2018-08-12T11:44:58.715Z,3.17
2018-08-12T11:47:28.396Z,2.53
2018-08-12T11:50:02.345Z,3.50
2018-08-12T11:52:32.104Z,3.00
2018-08-12T11:55:01.753Z,2.60
2018-08-12T11:57:31.500Z,2.87
2018-08-12T12:00:01.188Z,3.03
2018-08-12T12:02:30.882Z,2.07
2018-08-12T12:05:00.600Z,2.43
2018-08-12T12:07:30.292Z,4.23
2018-08-12T12:10:00.100Z,2.50
2018-08-12T12:12:29.777Z,1.60
2018-08-12T12:15:00.216Z,1.93
2018-08-12T12:17:29.844Z,3.40
2018-08-12T12:19:59.518Z,2.70
2018-08-12T12:22:29.227Z,3.37
2018-08-12T12:24:58.911Z,1.47
2018-08-12T12:27:29.113Z,3.33
2018-08-12T12:29:58.860Z,2.27
2018-08-12T12:32:28.588Z,1.93
2018-08-12T12:34:58.268Z,3.23
2018-08-12T12:37:27.926Z,3.50
2018-08-12T12:39:57.758Z,3.10
2018-08-12T12:42:27.502Z,1.67
2018-08-12T12:44:57.622Z,2.80
2018-08-12T12:47:27.390Z,4.70
2018-08-12T12:49:58.122Z,2.00
2018-08-12T12:52:27.859Z,3.37
2018-08-12T12:54:58.186Z,1.57
2018-08-12T12:57:27.879Z,5.63
2018-08-12T12:59:58.429Z,2.20
2018-08-12T13:02:28.142Z,5.93
2018-08-12T13:04:59.241Z,3.27
2018-08-12T13:07:28.961Z,3.17
2018-08-12T13:09:59.000Z,1.70
2018-08-12T13:12:28.672Z,2.03
2018-08-12T13:14:59.925Z,2.43
2018-08-12T13:17:29.774Z,1.30
2018-08-12T13:19:59.667Z,2.83
2018-08-12T13:22:29.413Z,3.87
2018-08-12T13:24:59.774Z,3.70
2018-08-12T13:27:29.420Z,3.60
2018-08-12T13:29:59.952Z,1.07
2018-08-12T13:32:29.628Z,3.47
2018-08-12T13:35:01.585Z,4.03
2018-08-12T13:37:31.427Z,3.37
2018-08-12T13:40:01.460Z,1.33
2018-08-12T13:42:31.171Z,1.80
2018-08-12T13:45:01.107Z,3.23
2018-08-12T13:47:30.732Z,2.03
2018-08-12T13:50:01.189Z,1.77
2018-08-12T13:52:30.800Z,3.70
2018-08-12T13:55:01.164Z,2.40
2018-08-12T13:57:30.888Z,1.97
2018-08-12T14:00:01.311Z,2.87
2018-08-12T14:02:30.915Z,2.40
2018-08-12T14:05:01.305Z,3.37
2018-08-12T14:07:30.999Z,2.33
2018-08-12T14:10:01.480Z,4.17
2018-08-12T14:12:31.166Z,2.33
2018-08-12T14:15:01.599Z,1.90
2018-08-12T14:17:31.523Z,2.07
2018-08-12T14:20:01.874Z,11.10
2018-08-12T14:22:31.566Z,3.47
2018-08-12T14:25:01.960Z,2.43
2018-08-12T14:27:31.596Z,2.40
2018-08-12T14:30:02.442Z,1.93
2018-08-12T14:32:32.073Z,2.23
2018-08-12T14:35:03.408Z,4.17
2018-08-12T14:37:33.647Z,2.77
2018-08-12T14:40:03.777Z,1.30
2018-08-12T14:42:33.462Z,1.50
2018-08-12T14:45:03.821Z,1.87
2018-08-12T14:47:33.511Z,2.33
2018-08-12T14:50:04.122Z,2.00
2018-08-12T14:52:33.788Z,1.77
2018-08-12T14:55:04.661Z,3.40
2018-08-12T14:57:34.412Z,3.17
2018-08-12T15:00:05.562Z,1.70
2018-08-12T15:02:35.209Z,1.23
2018-08-12T15:05:05.494Z,1.93
2018-08-12T15:07:35.499Z,1.63
2018-08-12T15:10:07.761Z,2.13
2018-08-12T15:12:39.106Z,1.70
2018-08-12T15:15:11.031Z,3.97
2018-08-12T15:17:42.352Z,2.97
2018-08-12T15:20:13.005Z,2.13
2018-08-12T15:22:43.283Z,1.17
2018-08-12T15:25:16.812Z,2.03
2018-08-12T15:27:46.602Z,1.97
2018-08-12T15:30:16.325Z,3.60
2018-08-12T15:32:46.044Z,6.20
2018-08-12T15:35:16.483Z,1.53
2018-08-12T15:37:46.216Z,1.83
2018-08-12T15:40:16.725Z,2.77
2018-08-12T15:42:46.464Z,3.20
2018-08-12T15:45:17.245Z,2.00
2018-08-12T15:47:47.557Z,3.70
2018-08-12T15:50:18.124Z,5.67
2018-08-12T15:52:48.355Z,2.27
2018-08-12T15:55:18.052Z,6.07
2018-08-12T15:57:47.893Z,1.50
2018-08-12T16:00:20.393Z,3.13
2018-08-12T16:02:50.045Z,3.93
2018-08-12T16:05:20.572Z,3.80
2018-08-12T16:07:50.569Z,4.13
2018-08-12T16:10:23.266Z,2.73
2018-08-12T16:12:54.852Z,4.53
2018-08-12T16:15:24.747Z,1.63
2018-08-12T16:17:54.765Z,2.07
2018-08-12T16:20:24.502Z,2.70
2018-08-12T16:22:55.728Z,2.27
2018-08-12T16:25:25.911Z,2.87
2018-08-12T16:28:02.087Z,3.97
2018-08-12T16:30:32.339Z,2.00
2018-08-12T16:33:02.092Z,2.10
2018-08-12T16:35:31.946Z,5.90
2018-08-12T16:38:01.611Z,2.63
2018-08-12T16:40:31.751Z,3.87
2018-08-12T16:43:01.486Z,2.63
2018-08-12T16:45:31.144Z,3.33
2018-08-12T16:48:00.815Z,3.87
2018-08-12T16:50:30.615Z,2.33
2018-08-12T16:53:00.234Z,3.00
2018-08-12T16:55:29.973Z,3.70
2018-08-12T16:57:59.583Z,2.00
2018-08-12T17:00:29.271Z,3.60
2018-08-12T17:02:58.985Z,2.73
2018-08-12T17:05:28.672Z,5.47
2018-08-12T17:07:58.436Z,1.67
2018-08-12T17:10:28.285Z,1.97
2018-08-12T17:12:58.065Z,2.43
2018-08-12T17:15:27.756Z,3.73
2018-08-12T17:17:57.640Z,3.93
2018-08-12T17:20:27.252Z,2.60
2018-08-12T17:22:56.909Z,3.00
2018-08-12T17:25:26.681Z,2.37
2018-08-12T17:27:56.395Z,2.53
2018-08-12T17:30:26.174Z,3.60
2018-08-12T17:32:55.877Z,4.90
2018-08-12T17:35:25.563Z,3.17
2018-08-12T17:38:02.588Z,5.00
2018-08-12T17:40:32.321Z,7.47
2018-08-12T17:43:02.082Z,7.77
2018-08-12T17:45:31.780Z,4.67
2018-08-12T17:48:01.476Z,5.67
2018-08-12T17:50:31.270Z,5.53
2018-08-12T17:53:01.005Z,14.37
2018-08-12T17:55:31.730Z,8.77
2018-08-12T17:58:01.507Z,6.20
2018-08-12T18:00:31.293Z,3.83
2018-08-12T18:03:01.395Z,4.50
2018-08-12T18:05:31.085Z,7.53
2018-08-12T18:08:00.977Z,8.27
2018-08-12T18:10:31.525Z,7.20
2018-08-12T18:13:01.188Z,4.63
2018-08-12T18:15:30.852Z,5.77
2018-08-12T18:18:00.524Z,5.97
2018-08-12T18:20:30.209Z,5.93
2018-08-12T18:23:00.324Z,9.70
2018-08-12T18:25:29.933Z,8.27
2018-08-12T18:27:59.631Z,9.70
2018-08-12T18:30:29.309Z,8.10
2018-08-12T18:32:58.980Z,12.57
2018-08-12T18:35:28.668Z,8.77
2018-08-12T18:37:58.342Z,9.07
2018-08-12T18:40:28.086Z,13.57
2018-08-12T18:42:57.839Z,11.93
2018-08-12T18:45:27.574Z,12.97
2018-08-12T18:47:57.874Z,11.53
2018-08-12T18:50:27.625Z,11.57
2018-08-12T18:52:57.476Z,10.67
2018-08-12T18:55:27.197Z,10.63
2018-08-12T18:57:56.789Z,9.83
2018-08-12T19:00:26.504Z,10.20
2018-08-12T19:02:56.590Z,8.87
2018-08-12T19:05:26.451Z,7.27
2018-08-12T19:07:56.080Z,9.47
2018-08-12T19:10:25.711Z,6.40
2018-08-12T19:12:55.389Z,7.90
2018-08-12T19:15:25.950Z,6.67
2018-08-12T19:17:55.583Z,9.17
2018-08-12T19:20:26.467Z,7.80
2018-08-12T19:22:56.163Z,8.83
2018-08-12T19:25:25.827Z,10.77
2018-08-12T19:27:55.500Z,11.03
2018-08-12T19:30:25.216Z,15.10
2018-08-12T19:32:55.046Z,13.83
2018-08-12T19:35:25.633Z,14.70
2018-08-12T19:37:55.258Z,13.43
2018-08-12T19:40:24.907Z,14.73
2018-08-12T19:42:54.551Z,10.73
2018-08-12T19:45:24.797Z,12.03
2018-08-12T19:47:54.869Z,9.87
2018-08-12T19:50:25.058Z,6.93
2018-08-12T19:52:54.720Z,9.73
2018-08-12T19:55:25.009Z,4.70
2018-08-12T19:57:54.720Z,5.80
2018-08-12T20:00:25.148Z,6.53
2018-08-12T20:02:54.796Z,4.70
2018-08-12T20:05:24.979Z,5.60
2018-08-12T20:07:54.663Z,3.63
2018-08-12T20:10:25.043Z,5.70
2018-08-12T20:12:54.736Z,3.23
2018-08-12T20:15:25.103Z,3.63
2018-08-12T20:17:54.779Z,3.80
2018-08-12T20:20:24.803Z,2.90
2018-08-12T20:22:54.515Z,5.50
2018-08-12T20:25:25.402Z,5.70
2018-08-12T20:27:56.074Z,3.83
2018-08-12T20:30:28.023Z,6.17
2018-08-12T20:32:57.756Z,5.87
2018-08-12T20:35:27.488Z,4.20
2018-08-12T20:37:57.090Z,5.93
2018-08-12T20:40:26.907Z,4.63
2018-08-12T20:44:01.260Z,5.03
2018-08-12T20:46:30.895Z,4.60
2018-08-12T20:49:00.564Z,3.33
2018-08-12T20:51:30.650Z,6.50
2018-08-12T20:54:01.393Z,5.40
2018-08-12T20:56:32.678Z,4.07
2018-08-12T20:59:02.406Z,3.37
2018-08-12T21:01:33.272Z,4.47
2018-08-12T21:04:03.089Z,3.77
2018-08-12T21:06:32.768Z,3.97
2018-08-12T21:09:02.433Z,4.97
2018-08-12T21:11:32.169Z,9.90
2018-08-12T21:14:01.848Z,2.90
2018-08-12T21:16:31.567Z,4.60
2018-08-12T21:19:01.283Z,4.57
2018-08-12T21:21:30.982Z,2.83
2018-08-12T21:24:07.295Z,4.03
2018-08-12T21:26:37.012Z,5.40
2018-08-12T21:29:06.748Z,5.33
2018-08-12T21:31:37.146Z,2.40
2018-08-12T21:34:07.056Z,4.10
2018-08-12T21:36:37.110Z,4.20
2018-08-12T21:39:11.958Z,1.90
2018-08-12T21:41:42.013Z,2.30
2018-08-12T21:44:12.002Z,2.03
2018-08-12T21:46:42.125Z,1.93
2018-08-12T21:49:12.234Z,4.07
2018-08-12T21:51:43.450Z,2.00
2018-08-12T21:54:13.239Z,2.70
2018-08-12T21:56:42.914Z,3.10
2018-08-12T21:59:12.503Z,5.53
2018-08-12T22:01:42.310Z,4.23
2018-08-12T22:04:11.988Z,1.97
2018-08-12T22:06:42.793Z,3.73
2018-08-12T22:09:13.012Z,3.77
2018-08-12T22:11:42.841Z,4.00
2018-08-12T22:14:12.480Z,3.77
2018-08-12T22:16:42.088Z,5.37
2018-08-12T22:21:45.612Z,4.00
2018-08-12T22:24:15.635Z,2.43
2018-08-12T22:26:45.250Z,3.13
2018-08-12T22:29:14.940Z,6.53
2018-08-12T22:31:44.601Z,3.97
2018-08-12T22:34:14.255Z,4.03
2018-08-12T22:36:44.563Z,3.30
2018-08-12T22:39:14.148Z,3.63
2018-08-12T22:41:43.852Z,3.97
2018-08-12T22:44:13.528Z,3.80
2018-08-12T22:46:43.230Z,5.23
2018-08-12T22:49:12.796Z,8.47
2018-08-12T22:51:43.189Z,4.70
2018-08-12T22:54:12.935Z,4.57
2018-08-12T22:56:42.578Z,3.53
2018-08-12T22:59:12.497Z,3.70
2018-08-12T23:01:42.994Z,3.37
2018-08-12T23:04:12.699Z,4.60
2018-08-12T23:06:43.567Z,3.73
2018-08-12T23:09:14.272Z,4.33
2018-08-12T23:11:44.090Z,5.03
2018-08-12T23:14:13.759Z,4.27
2018-08-12T23:17:02.836Z,4.37
2018-08-12T23:19:32.807Z,3.07
2018-08-12T23:22:02.740Z,5.90
2018-08-12T23:24:32.674Z,4.30
2018-08-12T23:27:02.392Z,5.73
2018-08-12T23:29:32.110Z,3.03
2018-08-12T23:32:01.905Z,4.30
2018-08-12T23:34:31.768Z,7.47
2018-08-12T23:37:01.550Z,5.03
2018-08-12T23:39:31.132Z,5.53
2018-08-12T23:42:00.899Z,3.57
2018-08-12T23:44:30.477Z,5.70
2018-08-12T23:47:00.150Z,4.33
2018-08-12T23:49:29.848Z,6.30
2018-08-12T23:51:59.512Z,3.87
2018-08-12T23:54:29.125Z,2.57
2018-08-12T23:56:58.802Z,2.57
2018-08-12T23:59:28.791Z,3.27
